createdAt,value
2022-11-29T00:00:48.273Z,100.00
2022-11-29T00:03:15.410Z,100.00
2022-11-29T00:05:41.959Z,100.00
2022-11-29T00:08:08.719Z,100.00
2022-11-29T00:10:38.285Z,100.00
2022-11-29T00:13:04.915Z,100.00
2022-11-29T00:15:39.179Z,100.00
2022-11-29T00:18:06.526Z,100.00
2022-11-29T00:20:35.165Z,100.00
2022-11-29T00:23:01.836Z,100.00
2022-11-29T00:25:28.372Z,100.00
2022-11-29T00:27:54.853Z,100.00
2022-11-29T00:30:21.585Z,100.00
2022-11-29T00:32:48.163Z,100.00
2022-11-29T00:35:14.636Z,100.00
2022-11-29T00:37:41.230Z,100.00
2022-11-29T00:40:08.352Z,100.00
2022-11-29T00:42:35.294Z,100.00
2022-11-29T00:45:01.778Z,100.00
2022-11-29T00:47:28.306Z,100.00
2022-11-29T00:49:54.770Z,100.00
2022-11-29T00:52:21.329Z,100.00
2022-11-29T00:54:47.863Z,100.00
2022-11-29T00:57:14.350Z,100.00
2022-11-29T00:59:40.799Z,100.00
2022-11-29T01:02:07.242Z,100.00
2022-11-29T01:04:33.949Z,100.00
2022-11-29T01:07:00.564Z,100.00
2022-11-29T01:09:26.987Z,100.00
2022-11-29T01:11:53.426Z,100.00
2022-11-29T01:14:19.844Z,100.00
2022-11-29T01:16:46.368Z,100.00
2022-11-29T01:19:12.904Z,100.00
2022-11-29T01:21:39.317Z,100.00
2022-11-29T01:24:05.949Z,100.00
2022-11-29T01:26:32.466Z,100.00
2022-11-29T01:28:59.575Z,100.00
2022-11-29T01:31:31.740Z,100.00
2022-11-29T01:34:00.434Z,100.00
2022-11-29T01:36:27.312Z,100.00
2022-11-29T01:38:54.062Z,100.00
2022-11-29T01:41:25.432Z,100.00
2022-11-29T01:44:04.073Z,100.00
2022-11-29T01:46:38.515Z,100.00
2022-11-29T01:49:17.690Z,100.00
2022-11-29T01:51:56.269Z,100.00
2022-11-29T01:54:23.069Z,100.00
2022-11-29T01:56:50.584Z,100.00
2022-11-29T01:59:19.848Z,100.00
2022-11-29T02:01:46.355Z,100.00
2022-11-29T02:04:13.900Z,100.00
2022-11-29T02:06:41.460Z,100.00
2022-11-29T02:09:19.582Z,100.00
2022-11-29T02:12:00.820Z,100.00
2022-11-29T02:14:40.302Z,100.00
2022-11-29T02:17:44.280Z,100.00
2022-11-29T02:20:42.827Z,100.00
2022-11-29T02:23:23.750Z,100.00
2022-11-29T02:26:03.449Z,100.00
2022-11-29T02:28:38.777Z,100.00
2022-11-29T02:31:20.919Z,100.00
2022-11-29T02:34:16.895Z,100.00
2022-11-29T02:37:11.666Z,100.00
2022-11-29T02:39:52.814Z,100.00
2022-11-29T02:42:56.114Z,100.00
2022-11-29T02:45:49.208Z,100.00
2022-11-29T02:48:50.070Z,100.00
2022-11-29T02:51:28.168Z,100.00
2022-11-29T02:54:11.495Z,100.00
2022-11-29T02:56:44.229Z,100.00
2022-11-29T02:59:29.446Z,100.00
2022-11-29T03:02:03.267Z,100.00
2022-11-29T03:04:35.522Z,100.00
2022-11-29T03:07:27.441Z,100.00
2022-11-29T03:10:06.051Z,100.00
2022-11-29T03:12:39.643Z,100.00
2022-11-29T03:15:24.950Z,100.00
2022-11-29T03:18:01.761Z,100.00
2022-11-29T03:20:55.618Z,100.00
2022-11-29T03:23:38.230Z,100.00
2022-11-29T03:26:15.742Z,100.00
2022-11-29T03:28:52.045Z,100.00
2022-11-29T03:31:28.837Z,100.00
2022-11-29T03:34:26.829Z,100.00
2022-11-29T03:37:02.462Z,100.00
2022-11-29T03:39:42.867Z,100.00
2022-11-29T03:42:17.879Z,100.00
2022-11-29T03:44:53.748Z,100.00
2022-11-29T03:47:26.268Z,100.00
2022-11-29T03:49:58.065Z,100.00
2022-11-29T03:52:53.798Z,100.00
2022-11-29T03:55:49.198Z,100.00
2022-11-29T03:58:30.470Z,100.00
2022-11-29T04:01:24.271Z,100.00
2022-11-29T04:04:30.755Z,100.00
2022-11-29T04:07:21.572Z,100.00
2022-11-29T04:10:03.753Z,100.00
2022-11-29T04:12:45.519Z,100.00
2022-11-29T04:15:34.030Z,100.00
2022-11-29T04:18:06.670Z,100.00
2022-11-29T04:21:06.855Z,100.00
2022-11-29T04:24:17.668Z,100.00
2022-11-29T04:26:52.766Z,100.00
2022-11-29T04:29:30.203Z,100.00
2022-11-29T04:32:19.658Z,100.00
2022-11-29T04:35:14.020Z,100.00
2022-11-29T04:38:02.301Z,100.00
2022-11-29T04:41:10.610Z,100.00
2022-11-29T04:43:51.862Z,100.00
2022-11-29T04:46:49.191Z,100.00
2022-11-29T04:49:28.900Z,100.00
2022-11-29T04:52:15.023Z,100.00
2022-11-29T04:55:02.965Z,100.00
2022-11-29T04:57:46.462Z,100.00
2022-11-29T05:00:16.156Z,100.00
2022-11-29T05:02:58.196Z,100.00
2022-11-29T05:05:43.207Z,100.00
2022-11-29T05:08:40.884Z,100.00
2022-11-29T05:11:16.069Z,100.00
2022-11-29T05:13:58.940Z,100.00
2022-11-29T05:16:40.548Z,100.00
2022-11-29T05:19:26.159Z,100.00
2022-11-29T05:22:20.629Z,100.00
2022-11-29T05:24:55.613Z,100.00
2022-11-29T05:27:22.009Z,100.00
2022-11-29T05:29:54.407Z,100.00
2022-11-29T05:32:45.711Z,100.00
2022-11-29T05:35:33.932Z,100.00
2022-11-29T05:38:05.611Z,100.00
2022-11-29T05:40:53.321Z,100.00
2022-11-29T05:43:36.119Z,100.00
2022-11-29T05:46:22.804Z,100.00
2022-11-29T05:49:17.461Z,100.00
2022-11-29T05:51:56.190Z,100.00
2022-11-29T05:54:34.350Z,100.00
2022-11-29T05:57:45.633Z,100.00
2022-11-29T06:00:14.707Z,100.00
2022-11-29T06:02:55.027Z,100.00
2022-11-29T06:05:39.637Z,100.00
2022-11-29T06:08:30.429Z,100.00
2022-11-29T06:11:05.831Z,100.00
2022-11-29T06:14:09.859Z,100.00
2022-11-29T06:17:01.922Z,100.00
2022-11-29T06:19:35.105Z,100.00
2022-11-29T06:22:20.965Z,100.00
2022-11-29T06:25:32.570Z,100.00
2022-11-29T06:28:07.807Z,100.00
2022-11-29T06:31:05.429Z,100.00
2022-11-29T06:33:48.487Z,100.00
2022-11-29T06:36:20.051Z,100.00
2022-11-29T06:38:47.187Z,100.00
2022-11-29T06:41:18.432Z,100.00
2022-11-29T06:43:45.756Z,100.00
2022-11-29T06:46:25.589Z,100.00
2022-11-29T06:49:02.229Z,100.00
2022-11-29T06:51:34.377Z,100.00
2022-11-29T06:54:07.989Z,100.00
2022-11-29T06:56:44.587Z,100.00
2022-11-29T06:59:30.896Z,100.00
2022-11-29T07:02:42.735Z,100.00
2022-11-29T07:05:18.032Z,100.00
2022-11-29T07:07:47.225Z,100.00
2022-11-29T07:10:18.643Z,100.00
2022-11-29T07:12:46.490Z,100.00
2022-11-29T07:15:18.758Z,100.00
2022-11-29T07:17:54.825Z,100.00
2022-11-29T07:20:31.407Z,100.00
2022-11-29T07:23:19.668Z,100.00
2022-11-29T07:26:05.065Z,100.00
2022-11-29T07:28:46.605Z,100.00
2022-11-29T07:31:42.830Z,100.00
2022-11-29T07:34:41.868Z,100.00
2022-11-29T07:37:32.668Z,100.00
2022-11-29T07:40:18.002Z,100.00
2022-11-29T07:42:59.764Z,100.00
2022-11-29T07:45:31.942Z,100.00
2022-11-29T07:47:59.125Z,100.00
2022-11-29T07:50:27.217Z,100.00
2022-11-29T07:52:54.254Z,100.00
2022-11-29T07:55:22.477Z,100.00
2022-11-29T07:57:49.975Z,100.00
2022-11-29T08:00:18.365Z,100.00
2022-11-29T08:02:45.230Z,100.00
2022-11-29T08:05:11.873Z,100.00
2022-11-29T08:07:41.090Z,100.00
2022-11-29T08:10:13.536Z,100.00
2022-11-29T08:12:45.557Z,100.00
2022-11-29T08:15:12.869Z,100.00
2022-11-29T08:17:39.684Z,100.00
2022-11-29T08:20:07.271Z,100.00
2022-11-29T08:22:34.319Z,100.00
2022-11-29T08:25:01.604Z,100.00
2022-11-29T08:27:28.363Z,100.00
2022-11-29T08:29:55.174Z,100.00
2022-11-29T08:32:21.956Z,100.00
2022-11-29T08:34:48.529Z,100.00
2022-11-29T08:37:15.335Z,100.00
2022-11-29T08:39:42.005Z,100.00
2022-11-29T08:42:08.603Z,100.00
2022-11-29T08:44:36.385Z,100.00
2022-11-29T08:47:21.704Z,100.00
2022-11-29T08:50:03.412Z,100.00
2022-11-29T08:52:50.092Z,100.00
2022-11-29T08:55:17.883Z,100.00
2022-11-29T08:57:44.490Z,100.00
2022-11-29T09:00:12.353Z,100.00
2022-11-29T09:02:39.331Z,100.00
2022-11-29T09:05:06.820Z,100.00
2022-11-29T09:07:34.585Z,100.00
2022-11-29T09:10:05.481Z,100.00
2022-11-29T09:12:32.761Z,100.00
2022-11-29T09:14:59.465Z,100.00
2022-11-29T09:17:26.069Z,100.00
2022-11-29T09:19:52.711Z,100.00
2022-11-29T09:22:19.348Z,100.00
2022-11-29T09:24:46.954Z,100.00
2022-11-29T09:27:13.786Z,100.00
2022-11-29T09:29:40.321Z,100.00
2022-11-29T09:32:07.168Z,100.00
2022-11-29T09:34:35.900Z,100.00
2022-11-29T09:37:02.584Z,100.00
2022-11-29T09:39:29.420Z,100.00
2022-11-29T09:42:27.440Z,100.00
2022-11-29T09:45:07.774Z,100.00
2022-11-29T09:48:02.569Z,100.00
2022-11-29T09:50:37.272Z,100.00
2022-11-29T09:53:14.211Z,99.60
2022-11-29T09:56:15.078Z,99.67
2022-11-29T09:58:48.189Z,99.75
2022-11-29T10:01:21.261Z,99.06
2022-11-29T10:03:52.146Z,99.20
2022-11-29T10:06:24.411Z,98.38
2022-11-29T10:09:03.129Z,98.90
2022-11-29T10:11:47.897Z,98.55
2022-11-29T10:14:18.360Z,98.54
2022-11-29T10:16:53.189Z,98.30
2022-11-29T10:19:21.538Z,98.05
2022-11-29T10:22:03.599Z,97.49
2022-11-29T10:24:31.998Z,98.13
2022-11-29T10:26:58.812Z,98.08
2022-11-29T10:29:25.776Z,97.66
2022-11-29T10:31:56.755Z,97.87
2022-11-29T10:34:25.947Z,97.76
2022-11-29T10:37:03.421Z,97.64
2022-11-29T10:39:49.295Z,97.99
2022-11-29T10:42:39.569Z,97.72
2022-11-29T10:45:17.148Z,97.39
2022-11-29T10:47:46.693Z,96.81
2022-11-29T10:50:17.633Z,96.54
2022-11-29T10:52:44.122Z,96.63
2022-11-29T10:55:14.045Z,97.08
2022-11-29T10:58:15.687Z,96.86
2022-11-29T11:01:09.480Z,96.98
2022-11-29T11:03:42.870Z,97.59
2022-11-29T11:06:24.476Z,97.24
2022-11-29T11:08:55.288Z,97.59
2022-11-29T11:11:30.857Z,96.36
2022-11-29T11:14:23.128Z,96.74
2022-11-29T11:16:50.274Z,96.81
2022-11-29T11:19:30.843Z,97.40
2022-11-29T11:21:59.304Z,97.91
2022-11-29T11:24:35.544Z,96.97
2022-11-29T11:27:04.201Z,96.50
2022-11-29T11:29:44.374Z,96.51
2022-11-29T11:32:19.508Z,97.30
2022-11-29T11:34:53.984Z,97.25
2022-11-29T11:37:34.314Z,97.44
2022-11-29T11:40:19.068Z,96.92
2022-11-29T11:42:45.887Z,96.96
2022-11-29T11:45:12.556Z,97.66
2022-11-29T11:47:49.275Z,97.54
2022-11-29T11:50:24.150Z,97.20
2022-11-29T11:52:54.062Z,97.71
2022-11-29T11:55:36.836Z,98.03
2022-11-29T11:58:10.335Z,97.25
2022-11-29T12:04:14.995Z,96.43
2022-11-29T12:07:02.919Z,96.61
2022-11-29T12:09:59.314Z,97.39
2022-11-29T12:12:37.275Z,97.49
2022-11-29T12:15:07.780Z,96.50
2022-11-29T12:17:52.809Z,96.34
2022-11-29T12:20:40.031Z,96.21
2022-11-29T12:23:22.073Z,96.86
2022-11-29T12:25:52.140Z,97.13
2022-11-29T12:28:21.097Z,97.67
2022-11-29T12:30:56.564Z,96.67
2022-11-29T12:33:49.855Z,97.47
2022-11-29T12:36:24.780Z,97.17
2022-11-29T12:39:00.155Z,97.57
2022-11-29T12:42:00.432Z,96.81
2022-11-29T12:44:37.713Z,97.01
2022-11-29T12:47:40.192Z,96.83
2022-11-29T12:50:19.033Z,97.13
2022-11-29T12:53:04.158Z,97.86
2022-11-29T12:55:50.993Z,97.61
2022-11-29T12:58:27.349Z,97.79
2022-11-29T13:01:12.886Z,97.97
2022-11-29T13:03:39.928Z,97.79
2022-11-29T13:06:30.381Z,98.35
2022-11-29T13:09:12.014Z,97.58
2022-11-29T13:11:43.196Z,96.95
2022-11-29T13:14:42.215Z,96.90
2022-11-29T13:17:36.865Z,97.20
2022-11-29T13:20:39.364Z,97.53
2022-11-29T13:23:17.686Z,97.90
2022-11-29T13:25:46.369Z,97.90
2022-11-29T13:28:29.989Z,96.80
2022-11-29T13:31:01.079Z,97.60
2022-11-29T13:33:55.717Z,97.98
2022-11-29T13:36:49.375Z,99.57
2022-11-29T13:39:46.515Z,99.73
2022-11-29T13:42:19.627Z,99.22
2022-11-29T13:45:05.433Z,99.28
2022-11-29T13:47:32.066Z,99.95
2022-11-29T13:50:37.232Z,99.37
2022-11-29T13:53:12.611Z,99.64
2022-11-29T13:55:59.836Z,99.87
2022-11-29T13:58:29.276Z,99.94
2022-11-29T14:01:00.932Z,99.41
2022-11-29T14:03:39.176Z,99.87
2022-11-29T14:06:14.238Z,99.80
2022-11-29T14:11:42.950Z,99.75
2022-11-29T14:14:30.122Z,99.50
2022-11-29T14:17:02.409Z,99.77
2022-11-29T14:19:33.986Z,99.83
2022-11-29T14:22:06.613Z,99.20
2022-11-29T14:24:34.223Z,99.24
2022-11-29T14:27:06.452Z,99.20
2022-11-29T14:29:52.652Z,99.75
2022-11-29T14:32:22.750Z,99.70
2022-11-29T14:34:59.400Z,99.92
2022-11-29T14:38:02.072Z,100.00
2022-11-29T14:40:28.454Z,99.87
2022-11-29T14:42:54.943Z,99.36
2022-11-29T14:45:30.022Z,99.78
2022-11-29T14:47:57.074Z,99.85
2022-11-29T14:50:36.431Z,99.97
2022-11-29T14:53:04.952Z,100.00
2022-11-29T14:55:35.482Z,100.00
2022-11-29T14:58:06.249Z,99.67
2022-11-29T15:00:32.925Z,99.37
2022-11-29T15:03:17.146Z,99.42
2022-11-29T15:05:46.351Z,99.91
2022-11-29T15:08:20.566Z,99.14
2022-11-29T15:10:52.297Z,99.39
2022-11-29T15:13:28.937Z,99.80
2022-11-29T15:16:16.658Z,100.00
2022-11-29T15:19:23.214Z,99.96
2022-11-29T15:21:56.613Z,99.42
2022-11-29T15:24:28.482Z,99.24
2022-11-29T15:27:00.047Z,99.74
2022-11-29T15:29:28.393Z,99.75
2022-11-29T15:31:57.554Z,99.53
2022-11-29T15:34:37.574Z,99.61
2022-11-29T15:37:04.739Z,99.60
2022-11-29T15:39:34.224Z,99.79
2022-11-29T15:42:11.807Z,100.00
2022-11-29T15:44:45.747Z,100.00
2022-11-29T15:47:22.901Z,100.00
2022-11-29T15:49:50.661Z,99.65
2022-11-29T15:52:25.904Z,99.96
2022-11-29T15:54:56.915Z,100.00
2022-11-29T15:57:43.249Z,99.83
2022-11-29T16:00:20.356Z,99.85
2022-11-29T16:02:55.744Z,99.96
2022-11-29T16:05:31.252Z,99.97
2022-11-29T16:08:01.563Z,100.00
2022-11-29T16:10:36.162Z,99.42
2022-11-29T16:13:26.214Z,99.71
2022-11-29T16:16:06.397Z,98.69
2022-11-29T16:18:34.049Z,99.56
2022-11-29T16:21:05.762Z,99.17
2022-11-29T16:23:41.383Z,99.49
2022-11-29T16:26:12.380Z,99.71
2022-11-29T16:28:44.861Z,99.32
2022-11-29T16:31:18.334Z,98.81
2022-11-29T16:33:47.663Z,99.70
2022-11-29T16:36:17.441Z,99.29
2022-11-29T16:38:46.340Z,99.71
2022-11-29T16:41:35.419Z,99.27
2022-11-29T16:44:03.503Z,99.70
2022-11-29T16:46:37.196Z,99.82
2022-11-29T16:49:30.562Z,100.00
2022-11-29T16:51:57.249Z,99.58
2022-11-29T16:54:31.974Z,99.89
2022-11-29T16:56:58.624Z,99.18
2022-11-29T16:59:28.070Z,98.70
2022-11-29T17:01:56.562Z,99.03
2022-11-29T17:04:24.984Z,99.17
2022-11-29T17:06:56.032Z,99.08
2022-11-29T17:09:25.933Z,98.72
2022-11-29T17:11:52.992Z,99.53
2022-11-29T17:14:19.470Z,99.46
2022-11-29T17:16:49.359Z,99.46
2022-11-29T17:19:16.188Z,100.00
2022-11-29T17:21:42.732Z,99.23
2022-11-29T17:24:14.377Z,99.49
2022-11-29T17:26:41.513Z,98.85
2022-11-29T17:29:10.004Z,99.11
2022-11-29T17:31:36.576Z,99.58
2022-11-29T17:34:03.415Z,99.66
2022-11-29T17:36:30.573Z,99.86
2022-11-29T17:38:59.103Z,99.82
2022-11-29T17:41:26.837Z,99.61
2022-11-29T17:43:54.539Z,99.49
2022-11-29T17:46:23.137Z,99.99
2022-11-29T17:48:50.654Z,99.58
2022-11-29T17:51:50.098Z,99.48
2022-11-29T17:54:05.986Z,99.50
2022-11-29T17:56:32.852Z,99.14
2022-11-29T17:59:01.417Z,99.20
2022-11-29T18:01:30.667Z,99.15
2022-11-29T18:04:00.474Z,99.95
2022-11-29T18:06:28.975Z,99.86
2022-11-29T18:08:57.679Z,99.76
2022-11-29T18:11:30.477Z,99.50
2022-11-29T18:13:58.021Z,99.85
2022-11-29T18:16:27.601Z,99.06
2022-11-29T18:19:08.238Z,99.27
2022-11-29T18:21:36.052Z,98.94
2022-11-29T18:24:03.856Z,99.40
2022-11-29T18:26:31.530Z,99.19
2022-11-29T18:28:58.418Z,99.16
2022-11-29T18:31:28.345Z,99.00
2022-11-29T18:34:00.131Z,98.99
2022-11-29T18:36:31.609Z,99.33
2022-11-29T18:39:03.781Z,99.54
2022-11-29T18:41:31.060Z,99.22
2022-11-29T18:43:59.863Z,99.27
2022-11-29T18:46:32.195Z,99.11
2022-11-29T18:49:02.561Z,98.75
2022-11-29T18:51:30.459Z,99.13
2022-11-29T18:53:58.125Z,99.08
2022-11-29T18:56:26.475Z,98.66
2022-11-29T18:58:58.171Z,98.83
2022-11-29T19:01:27.559Z,98.53
2022-11-29T19:03:55.297Z,98.52
2022-11-29T19:06:24.084Z,98.77
2022-11-29T19:08:51.881Z,98.66
2022-11-29T19:11:23.672Z,97.95
2022-11-29T19:13:56.501Z,97.75
2022-11-29T19:16:24.010Z,98.77
2022-11-29T19:18:52.295Z,98.83
2022-11-29T19:21:20.475Z,98.36
2022-11-29T19:23:53.347Z,98.57
2022-11-29T19:26:20.167Z,98.24
2022-11-29T19:28:47.453Z,98.17
2022-11-29T19:31:15.946Z,98.52
2022-11-29T19:33:44.830Z,98.56
2022-11-29T19:36:19.515Z,97.82
2022-11-29T19:38:51.693Z,97.83
2022-11-29T19:41:34.527Z,98.05
2022-11-29T19:44:04.457Z,97.64
2022-11-29T19:46:35.918Z,97.88
2022-11-29T19:49:04.607Z,97.62
2022-11-29T19:51:31.487Z,97.35
2022-11-29T19:54:00.924Z,98.26
2022-11-29T19:56:28.251Z,97.29
2022-11-29T19:58:55.273Z,97.71
2022-11-29T20:01:25.102Z,97.86
2022-11-29T20:03:52.305Z,97.81
2022-11-29T20:06:19.244Z,97.82
2022-11-29T20:08:45.852Z,97.71
2022-11-29T20:11:19.594Z,97.83
2022-11-29T20:13:48.247Z,97.92
2022-11-29T20:16:15.980Z,97.39
2022-11-29T20:18:50.492Z,97.52
2022-11-29T20:21:23.082Z,97.83
2022-11-29T20:23:49.758Z,97.90
2022-11-29T20:26:18.331Z,98.08
2022-11-29T20:28:46.416Z,97.68
2022-11-29T20:31:15.850Z,97.86
2022-11-29T20:33:43.878Z,98.01
2022-11-29T20:36:35.735Z,97.43
2022-11-29T20:39:39.711Z,97.58
2022-11-29T20:42:25.124Z,97.49
2022-11-29T20:44:57.686Z,97.08
2022-11-29T20:47:26.750Z,97.16
2022-11-29T20:49:54.034Z,97.03
2022-11-29T20:52:42.714Z,97.42
2022-11-29T20:55:09.256Z,97.58
2022-11-29T20:57:38.237Z,97.75
2022-11-29T21:00:07.299Z,97.44
2022-11-29T21:02:34.192Z,97.51
2022-11-29T21:05:00.842Z,97.73
2022-11-29T21:07:27.781Z,97.63
2022-11-29T21:09:58.062Z,96.43
2022-11-29T21:12:28.508Z,96.22
2022-11-29T21:14:55.240Z,96.55
2022-11-29T21:17:23.036Z,96.06
2022-11-29T21:19:49.676Z,94.97
2022-11-29T21:22:35.840Z,94.73
2022-11-29T21:25:30.030Z,95.36
2022-11-29T21:27:56.713Z,94.93
2022-11-29T21:30:27.210Z,95.12
2022-11-29T21:32:54.052Z,95.16
2022-11-29T21:35:20.681Z,95.76
2022-11-29T21:37:47.272Z,95.06
2022-11-29T21:40:14.476Z,95.29
2022-11-29T21:42:41.184Z,95.42
2022-11-29T21:45:14.842Z,95.47
2022-11-29T21:47:41.861Z,95.49
2022-11-29T21:50:08.615Z,95.54
2022-11-29T21:52:35.348Z,94.71
2022-11-29T21:55:02.099Z,94.60
2022-11-29T21:57:28.662Z,94.39
2022-11-29T21:59:55.189Z,94.64
2022-11-29T22:02:21.743Z,94.83
2022-11-29T22:04:48.869Z,94.80
2022-11-29T22:07:15.657Z,95.00
2022-11-29T22:09:42.346Z,95.46
2022-11-29T22:12:32.008Z,94.96
2022-11-29T22:14:55.615Z,94.89
2022-11-29T22:17:22.216Z,94.83
2022-11-29T22:19:48.900Z,95.62
2022-11-29T22:22:15.539Z,94.06
2022-11-29T22:24:41.976Z,94.95
2022-11-29T22:27:08.407Z,94.51
2022-11-29T22:29:35.782Z,94.22
2022-11-29T22:32:02.271Z,93.61
2022-11-29T22:34:28.846Z,94.12
2022-11-29T22:36:55.782Z,94.99
2022-11-29T22:39:22.696Z,94.55
2022-11-29T22:41:53.930Z,93.97
2022-11-29T22:44:21.356Z,93.57
2022-11-29T22:46:47.891Z,94.45
2022-11-29T22:49:14.520Z,94.72
2022-11-29T22:51:41.097Z,94.92
2022-11-29T22:54:09.329Z,94.95
2022-11-29T22:56:41.044Z,94.96
2022-11-29T22:59:08.593Z,95.24
2022-11-29T23:01:37.124Z,95.67
2022-11-29T23:04:05.975Z,96.38
2022-11-29T23:06:52.780Z,95.99
2022-11-29T23:09:22.474Z,96.24
2022-11-29T23:11:54.088Z,96.23
2022-11-29T23:14:22.331Z,96.20
2022-11-29T23:16:49.435Z,95.91
2022-11-29T23:19:16.284Z,95.70
2022-11-29T23:21:45.745Z,95.40
2022-11-29T23:24:12.755Z,94.99
2022-11-29T23:26:42.589Z,95.19
2022-11-29T23:29:11.920Z,95.66
2022-11-29T23:31:38.847Z,95.71
2022-11-29T23:34:05.545Z,95.45
2022-11-29T23:36:32.447Z,95.82
2022-11-29T23:38:59.146Z,95.50
2022-11-29T23:41:25.957Z,95.26
2022-11-29T23:43:52.379Z,95.44
2022-11-29T23:46:21.593Z,96.04
2022-11-29T23:48:48.452Z,96.02
2022-11-29T23:51:15.944Z,96.41
2022-11-29T23:53:42.896Z,96.44
2022-11-29T23:56:12.714Z,96.54
2022-11-29T23:58:39.307Z,95.76
